Terminal Aerodrome Forecast
Issued by NWS

Home | Current Version | Previous Version | Text Only | Print | Product List | Glossary On
Versions: 1 2 3 4 5 6 7 8 9 10 11 12 13 14 15 16 17 18 19 20 21
000
FTUS42 KFFC 281340 AAA
TAFPDK
TAF AMD
KPDK 281340Z 2814/2912 19005KT 3SM -RA BR BKN005 OVC015
     FM281700 24005KT 6SM -RA BR OVC015
     FM282200 29003KT P6SM VCSH OVC012
     FM290200 32003KT 3SM -RA BR OVC007=

USA.gov is the U.S. government's official web portal to all federal, state and local government web resources and services.